Dades meteomassalio
Diari Summary for Setembre 3, 2017 Units:  Metric    English   Both
« Previous Day
Next Day »
Diari Semanal Mensual Anual Personalitzat
  Maxima: Minima: Mijana:
Temperatura: -17.8 °C -12.6 °C -8.1 °C
Rosada: -17.8 °C -15.9 °C -13.1 °C
Humitat: Humidity % 27 % 60 %
Velocitat del vent: 0 km/h 0 km/h 3.7 km/h
Racha vent: 0 km/h - -
Vent:- - WSW
Pressio: 0 hPa 34347.6 hPa -
Pluja: 12.7 mm    
Historical Graphs
 
 
Tabular Data for Setembre 3, 2017
Time Temperature Dew Point Pressure Wind Wind Speed Wind Gust Humidity Rainfall Rate (Hourly) solar Conditions
-17.8 °C -17.8 °C 0 hPa Calm     Humidity % 0 mm SolarRadiationWatts/m^2 W/m2 Conditions
00:02 -11 °C -14.2 °C 34611.7 hPa Calm     68 % 0 mm 0.0 W/m2 CLR
00:07 -11 °C -14.1 °C 34625.2 hPa Calm     69 % 0 mm 0.0 W/m2 CLR
00:12 -11.3 °C -14.2 °C 34625.2 hPa Calm     70 % 0 mm 0.0 W/m2 CLR
00:17 -11.3 °C -14.1 °C 34625.2 hPa Calm     71 % 0 mm 0.0 W/m2 CLR
00:22 -11.3 °C -14 °C 34611.7 hPa Calm     72 % 0 mm 0.0 W/m2 CLR
00:27 -11.3 °C -13.8 °C 34611.7 hPa Calm     74 % 0 mm 0.0 W/m2 CLR
00:32 -11.3 °C -13.8 °C 34611.7 hPa Calm     74 % 0 mm 0.0 W/m2 CLR
00:37 -11.6 °C -14 °C 34611.7 hPa Calm     75 % 0 mm 0.0 W/m2 CLR
00:42 -11.6 °C -14 °C 34611.7 hPa Calm     75 % 0 mm 0.0 W/m2 CLR
00:47 -11.6 °C -14 °C 34611.7 hPa Calm     75 % 0 mm 0.0 W/m2 CLR
00:52 -11.6 °C -14 °C 34611.7 hPa Calm     75 % 0 mm 0.0 W/m2 CLR
00:57 -11.6 °C -14 °C 34611.7 hPa Calm     75 % 0 mm 0.0 W/m2 CLR
01:02 -11.6 °C -14 °C 34611.7 hPa Calm     75 % 0 mm 0.0 W/m2 CLR
01:07 -11.6 °C -13.8 °C 34611.7 hPa Calm     76 % 0 mm 0.0 W/m2 CLR
01:12 -11.6 °C -13.8 °C 34611.7 hPa Calm     77 % 0 mm 0.0 W/m2 CLR
01:17 -11.6 °C -13.8 °C 34611.7 hPa Calm     77 % 0 mm 0.0 W/m2 CLR
01:22 -11.6 °C -13.8 °C 34601.5 hPa Calm     77 % 0 mm 0.0 W/m2 CLR
01:28 -11.6 °C -13.8 °C 34601.5 hPa Calm     77 % 0 mm 0.0 W/m2 CLR
01:32 -11.6 °C -13.8 °C 34601.5 hPa Calm     77 % 0 mm 0.0 W/m2 CLR
01:37 -11.9 °C -13.9 °C 34601.5 hPa Calm     78 % 0 mm 0.0 W/m2 CLR
01:42 -11.9 °C -13.9 °C 34601.5 hPa Calm     78 % 0 mm 0.0 W/m2 CLR
01:47 -11.9 °C -14.1 °C 34601.5 hPa Calm     77 % 0 mm 0.0 W/m2 CLR
01:53 -11.9 °C -13.9 °C 34601.5 hPa Calm     78 % 0 mm 0.0 W/m2 CLR
01:58 -11.9 °C -13.9 °C 34601.5 hPa Calm     78 % 0 mm 0.0 W/m2 CLR
02:03 -11.6 °C -13.6 °C 34601.5 hPa Calm     79 % 0 mm 0.0 W/m2 CLR
02:08 -11.6 °C -13.6 °C 34591.4 hPa Calm     79 % 0 mm 0.0 W/m2 CLR
02:13 -11.6 °C -13.4 °C 34591.4 hPa Calm     80 % 0 mm 0.0 W/m2 CLR
02:18 -11.6 °C -13.4 °C 34591.4 hPa Calm     80 % 0 mm 0.0 W/m2 CLR
02:23 -11.6 °C -13.4 °C 34591.4 hPa Calm     80 % 0 mm 0.0 W/m2 CLR
02:28 -11.9 °C -13.8 °C 34591.4 hPa Calm     80 % 0 mm 0.0 W/m2 CLR
02:33 -11.9 °C -13.8 °C 34591.4 hPa Calm     80 % 0 mm 0.0 W/m2 CLR
02:38 -11.9 °C -13.8 °C 34577.8 hPa Calm     80 % 0 mm 0.0 W/m2 CLR
02:43 -11.9 °C -13.8 °C 34577.8 hPa Calm     80 % 0 mm 0.0 W/m2 CLR
02:48 -11.9 °C -13.8 °C 34577.8 hPa Calm     80 % 0 mm 0.0 W/m2 CLR
02:53 -11.9 °C -13.8 °C 34577.8 hPa Calm     80 % 0 mm 0.0 W/m2 CLR
02:58 -11.9 °C -13.7 °C 34577.8 hPa Calm     81 % 0 mm 0.0 W/m2 CLR
03:03 -11.9 °C -13.7 °C 34577.8 hPa Calm     81 % 0 mm 0.0 W/m2 CLR
03:08 -11.9 °C -13.7 °C 34577.8 hPa Calm     81 % 0 mm 0.0 W/m2 CLR
03:13 -11.9 °C -13.6 °C 34577.8 hPa Calm     82 % 0 mm 0.0 W/m2 CLR
03:18 -11.9 °C -13.6 °C 34577.8 hPa Calm     82 % 0 mm 0.0 W/m2 CLR
03:23 -11.9 °C -13.6 °C 34577.8 hPa Calm     82 % 0 mm 0.0 W/m2 CLR
03:28 -11.9 °C -13.6 °C 34577.8 hPa Calm     82 % 0 mm 0.0 W/m2 CLR
03:33 -11.9 °C -13.6 °C 34577.8 hPa Calm     82 % 0 mm 0.0 W/m2 CLR
03:38 -12.2 °C -13.9 °C 34577.8 hPa Calm     81 % 0 mm 0.0 W/m2 CLR
03:43 -12.2 °C -13.9 °C 34577.8 hPa Calm     81 % 0 mm 0.0 W/m2 CLR
03:48 -12.2 °C -13.8 °C 34577.8 hPa Calm     82 % 0 mm 0.0 W/m2 CLR
03:53 -12.2 °C -13.8 °C 34577.8 hPa Calm     82 % 0 mm 0.0 W/m2 CLR
03:58 -12.2 °C -13.8 °C 34567.7 hPa Calm     83 % 0 mm 0.0 W/m2 CLR
04:03 -12.2 °C -13.8 °C 34567.7 hPa Calm     83 % 0 mm 0.0 W/m2 CLR
04:04 -12.2 °C -13.8 °C 34567.7 hPa Calm     83 % 0 mm 0.0 W/m2 CLR
04:09 -12.2 °C -13.8 °C 34567.7 hPa Calm     83 % 0 mm 0.0 W/m2 CLR
04:14 -12.2 °C -13.7 °C 34567.7 hPa Calm     84 % 0 mm 0.0 W/m2 CLR
04:19 -12.2 °C -13.7 °C 34567.7 hPa Calm     84 % 0 mm 0.0 W/m2 CLR
04:24 -12.2 °C -13.7 °C 34567.7 hPa Calm     84 % 0 mm 0.0 W/m2 CLR
04:29 -12.2 °C -13.6 °C 34567.7 hPa Calm     85 % 0 mm 0.0 W/m2 CLR
04:34 -12.2 °C -13.6 °C 34567.7 hPa Calm     85 % 0 mm 0.0 W/m2 CLR
04:39 -12.2 °C -13.6 °C 34567.7 hPa Calm     85 % 0 mm 0.0 W/m2 CLR
04:44 -12.2 °C -13.6 °C 34567.7 hPa Calm     85 % 0 mm 0.0 W/m2 CLR
04:49 -11.9 °C -13.3 °C 34567.7 hPa Calm     85 % 0 mm 0.0 W/m2 CLR
04:54 -11.9 °C -13.2 °C 34554.1 hPa Calm     86 % 0 mm 0.0 W/m2 CLR
04:59 -11.9 °C -13.2 °C 34554.1 hPa Calm     86 % 0 mm 0.0 W/m2 CLR
05:04 -11.9 °C -13.2 °C 34554.1 hPa Calm     86 % 0 mm 0.0 W/m2 CLR
05:09 -11.9 °C -13.1 °C 34554.1 hPa Calm     87 % 0 mm 0.0 W/m2 CLR
05:15 -11.9 °C -13.1 °C 34554.1 hPa Calm     87 % 0 mm 0.0 W/m2 CLR
05:19 -11.9 °C -13.1 °C 34554.1 hPa Calm     87 % 0 mm 0.0 W/m2 CLR
05:20 -11.9 °C -13.1 °C 34554.1 hPa Calm     87 % 0 mm 0.0 W/m2 CLR
05:21 -11.9 °C -13.1 °C 34554.1 hPa Calm     87 % 0 mm 0.0 W/m2 CLR
05:23 -11.9 °C -13.1 °C 34554.1 hPa Calm     87 % 0 mm 0.0 W/m2 CLR
05:24 -11.9 °C -13.1 °C 34554.1 hPa Calm     87 % 0 mm 0.0 W/m2 CLR
05:26 -11.9 °C -13.1 °C 34554.1 hPa Calm     87 % 0 mm 0.0 W/m2 CLR
05:31 -11.9 °C -13.1 °C 34554.1 hPa Calm     87 % 0 mm 0.0 W/m2 CLR
05:36 -11.9 °C -13.1 °C 34544 hPa Calm     87 % 0 mm 0.0 W/m2 CLR
05:41 -11.9 °C -12.9 °C 34544 hPa Calm     88 % 0 mm 0.0 W/m2 CLR
05:46 -12.2 °C -13.3 °C 34544 hPa Calm     88 % 0 mm 0.0 W/m2 CLR
05:51 -12.2 °C -13.4 °C 34533.8 hPa Calm     87 % 0 mm 0.0 W/m2 CLR
05:56 -12.2 °C -13.3 °C 34544 hPa Calm     88 % 0 mm 0.0 W/m2 CLR
06:01 -12.2 °C -13.3 °C 34544 hPa Calm     88 % 0 mm 0.0 W/m2 CLR
06:06 -12.6 °C -13.5 °C 34544 hPa Calm     89 % 0 mm 0.0 W/m2 CLR
06:11 -12.6 °C -13.5 °C 34544 hPa Calm     89 % 0 mm 0.0 W/m2 CLR
06:16 -12.6 °C -13.5 °C 34533.8 hPa Calm     89 % 0 mm 0.0 W/m2 CLR
06:21 -12.6 °C -13.5 °C 34533.8 hPa Calm     89 % 0 mm 0.0 W/m2 CLR
06:26 -12.6 °C -13.5 °C 34520.3 hPa Calm     89 % 0 mm 0.0 W/m2 CLR
06:31 -12.6 °C -13.5 °C 34533.8 hPa Calm     89 % 0 mm 0.0 W/m2 CLR
06:36 -12.6 °C -13.5 °C 34533.8 hPa Calm     89 % 0 mm 0.0 W/m2 CLR
06:41 -12.6 °C -13.5 °C 34533.8 hPa Calm     89 % 0 mm 0.0 W/m2 CLR
06:46 -12.6 °C -13.5 °C 34533.8 hPa Calm     89 % 0 mm 0.0 W/m2 CLR
06:51 -12.2 °C -13.2 °C 34533.8 hPa Calm     89 % 0 mm 0.0 W/m2 CLR
06:56 -12.2 °C -13.2 °C 34533.8 hPa Calm     89 % 0 mm 0.0 W/m2 CLR
07:01 -12.2 °C -13.2 °C 34533.8 hPa Calm     89 % 0 mm 0.0 W/m2 CLR
07:06 -12.6 °C -13.5 °C 34533.8 hPa Calm     89 % 0 mm 0.0 W/m2 CLR
07:11 -12.6 °C -13.5 °C 34533.8 hPa SSE 11.9 km/h 11.9 km/h 89 % 0 mm 0.0 W/m2 CLR
07:16 -12.6 °C -13.4 °C 34533.8 hPa SSW 12.9 km/h 12.9 km/h 90 % 0 mm 0.0 W/m2 CLR
07:21 -12.6 °C -13.4 °C 34533.8 hPa SSE 15 km/h 15 km/h 90 % 0 mm 0.0 W/m2 OVC
07:26 -12.6 °C -13.5 °C 34544 hPa Calm     89 % 0 mm 0.0 W/m2 OVC
07:31 -12.2 °C -13.2 °C 34533.8 hPa Calm     89 % 0 mm 0.0 W/m2 OVC
07:36 -12.6 °C -13.5 °C 34533.8 hPa Calm     89 % 0 mm 7.0 W/m2 OVC
07:41 -12.6 °C -13.5 °C 34533.8 hPa Calm     89 % 0 mm 11.0 W/m2 BKN
07:46 -12.6 °C -13.5 °C 34533.8 hPa Calm     89 % 0 mm 16.0 W/m2 BKN
07:51 -12.2 °C -13.2 °C 34533.8 hPa Calm     89 % 0 mm 19.0 W/m2 BKN
07:56 -12.2 °C -13.2 °C 34533.8 hPa Calm     89 % 0 mm 25.0 W/m2 BKN
08:01 -12.2 °C -13.2 °C 34533.8 hPa Calm     89 % 0 mm 30.0 W/m2 BKN
08:06 -11.9 °C -12.8 °C 34533.8 hPa Calm     90 % 0 mm 35.0 W/m2 BKN
08:11 -11.9 °C -12.8 °C 34533.8 hPa Calm     90 % 0 mm 40.0 W/m2 BKN
08:16 -11.9 °C -12.8 °C 34533.8 hPa Calm     90 % 0 mm 46.0 W/m2 SCT
08:21 -11.6 °C -12.4 °C 34533.8 hPa Calm     90 % 0 mm 53.0 W/m2 SCT
08:22 -11.6 °C -12.4 °C 34533.8 hPa Calm     90 % 0 mm 53.0 W/m2 SCT
08:27 -11.6 °C -12.6 °C 34533.8 hPa Calm     89 % 0 mm 67.0 W/m2 SCT
08:32 -11.6 °C -12.4 °C 34533.8 hPa Calm     90 % 0 mm 72.0 W/m2 SCT
08:37 -11.6 °C -12.6 °C 34533.8 hPa Calm     89 % 0 mm 72.0 W/m2 FEW
08:42 -11.3 °C -12.3 °C 34533.8 hPa Calm     89 % 0 mm 72.0 W/m2 FEW
08:47 -11.3 °C -12.3 °C 34533.8 hPa Calm     89 % 0 mm 70.0 W/m2 FEW
08:48 -11.3 °C -12.4 °C 34533.8 hPa Calm     88 % 0 mm 70.0 W/m2 FEW
08:53 -11.3 °C -12.3 °C 34533.8 hPa Calm     89 % 0 mm 72.0 W/m2 FEW
08:58 -11.3 °C -12.4 °C 34533.8 hPa Calm     88 % 0 mm 83.0 W/m2 FEW
09:03 -11 °C -12.1 °C 34533.8 hPa Calm     88 % 0 mm 111.0 W/m2 FEW
09:08 -11 °C -12.1 °C 34533.8 hPa Calm     88 % 0 mm 144.0 W/m2 CLR
09:13 -10.7 °C -11.8 °C 34533.8 hPa Calm     87 % 0 mm 178.0 W/m2 CLR
09:18 -10.7 °C -11.8 °C 34533.8 hPa Calm     87 % 0 mm 211.0 W/m2 CLR
09:23 -10.7 °C -11.9 °C 34533.8 hPa Calm     86 % 0 mm 183.0 W/m2 CLR
09:28 -10.4 °C -11.7 °C 34533.8 hPa Calm     85 % 0 mm 156.0 W/m2 CLR
09:33 -10.4 °C -11.8 °C 34520.3 hPa Calm     84 % 0 mm 162.0 W/m2 CLR
09:38 -10.1 °C -11.7 °C 34533.8 hPa Calm     82 % 0 mm 190.0 W/m2 CLR
09:44 -10.1 °C -11.8 °C 34520.3 hPa Calm     81 % 0 mm 204.0 W/m2 CLR
09:49 -10.1 °C -11.8 °C 34520.3 hPa Calm     81 % 0 mm 308.0 W/m2 CLR
09:54 -9.8 °C -11.6 °C 34520.3 hPa Calm     80 % 0 mm 432.0 W/m2 CLR
09:59 -9.4 °C -11.7 °C 34520.3 hPa Calm     77 % 0 mm 366.0 W/m2 CLR
10:04 -9.1 °C -11.7 °C 34520.3 hPa Calm     74 % 0 mm 383.0 W/m2 CLR
10:09 -8.8 °C -11.6 °C 34520.3 hPa Calm     72 % 0 mm 352.0 W/m2 CLR
10:14 -8.5 °C -11.4 °C 34520.3 hPa Calm     71 % 0 mm 360.0 W/m2 CLR
10:19 -8.5 °C -11.6 °C 34520.3 hPa Calm     70 % 0 mm 295.0 W/m2 CLR
10:24 -8.2 °C -11.5 °C 34520.3 hPa Calm     68 % 0 mm 427.0 W/m2 CLR
10:29 -7.9 °C -11.2 °C 34520.3 hPa Calm     68 % 0 mm 376.0 W/m2 CLR
10:34 -7.9 °C -11.5 °C 34510.1 hPa Calm     66 % 0 mm 353.0 W/m2 CLR
10:39 -7.6 °C -11.4 °C 34510.1 hPa Calm     64 % 0 mm 401.0 W/m2 CLR
10:44 -7.3 °C -11 °C 34510.1 hPa Calm     65 % 0 mm 390.0 W/m2 CLR
10:49 -7.3 °C -11.3 °C 34510.1 hPa Calm     63 % 0 mm 404.0 W/m2 CLR
10:54 -7 °C -11.2 °C 34510.1 hPa Calm     62 % 0 mm 353.0 W/m2 CLR
10:59 -7 °C -11.3 °C 34496.6 hPa Calm     61 % 0 mm 253.0 W/m2 CLR
11:04 -7 °C -11.2 °C 34510.1 hPa Calm     62 % 0 mm 229.0 W/m2 CLR
11:09 -7 °C -11.4 °C 34496.6 hPa Calm     60 % 0 mm 244.0 W/m2 CLR
11:14 -7 °C -11.4 °C 34486.4 hPa Calm     60 % 0 mm 239.0 W/m2 CLR
11:19 -6.7 °C -11.3 °C 34496.6 hPa Calm     59 % 0 mm 264.0 W/m2 CLR
11:24 -6.7 °C -11.3 °C 34486.4 hPa Calm     59 % 0 mm 350.0 W/m2 CLR
11:25 -6.7 °C -11.3 °C 34486.4 hPa Calm     59 % 0 mm 397.0 W/m2 CLR
11:30 -6.7 °C -11.6 °C 34486.4 hPa Calm     57 % 0 mm 304.0 W/m2 CLR
11:35 -6.3 °C -11.4 °C 34486.4 hPa Calm     56 % 0 mm 520.0 W/m2 CLR
11:40 -6.3 °C -11.6 °C 34476.3 hPa Calm     55 % 0 mm 547.0 W/m2 CLR
11:45 -6.1 °C -11.7 °C 34476.3 hPa Calm     52 % 0 mm 538.0 W/m2 CLR
11:50 -5.7 °C -11.4 °C 34476.3 hPa Calm     52 % 0 mm 582.0 W/m2 CLR
11:55 -5.7 °C -11.6 °C 34476.3 hPa Calm     51 % 0 mm 538.0 W/m2 CLR
12:00 -5.7 °C -11.6 °C 34486.4 hPa Calm     51 % 0 mm 577.0 W/m2 CLR
12:05 -5.4 °C -11.7 °C 34486.4 hPa Calm     49 % 0 mm 587.0 W/m2 CLR
12:10 -5.4 °C -11.7 °C 34496.6 hPa WSW 10.3 km/h 10.3 km/h 49 % 0 mm 759.0 W/m2 CLR
12:15 -5.1 °C -11.4 °C 34496.6 hPa NNW 12.9 km/h 12.9 km/h 49 % 0 mm 564.0 W/m2 CLR
12:20 -5.4 °C -11.5 °C 34496.6 hPa WSW 20.9 km/h 21.2 km/h 50 % 0 mm 461.0 W/m2 CLR
12:25 -5.4 °C -11.2 °C 34486.4 hPa WSW 26.9 km/h 26.9 km/h 52 % 0 mm 443.0 W/m2 CLR
12:30 -5.4 °C -11.2 °C 34486.4 hPa West 26.9 km/h 26.9 km/h 52 % 0 mm 461.0 W/m2 CLR
12:35 -5.4 °C -11.2 °C 34486.4 hPa West 26.9 km/h 26.9 km/h 52 % 0 mm 471.0 W/m2 CLR
12:40 -5.4 °C -11.2 °C 34486.4 hPa West 23.8 km/h 23.8 km/h 52 % 0 mm 478.0 W/m2 CLR
12:45 -5.7 °C -11.3 °C 34486.4 hPa West 15.6 km/h 15.6 km/h 53 % 0 mm 478.0 W/m2 CLR
12:50 -5.7 °C -11.4 °C 34486.4 hPa NW 9 km/h 9 km/h 52 % 0 mm 496.0 W/m2 CLR
12:55 -5.4 °C -11.3 °C 34486.4 hPa NW 20.9 km/h 20.9 km/h 51 % 0 mm 524.0 W/m2 CLR
13:00 -5.4 °C -11.2 °C 34486.4 hPa Calm     52 % 0 mm 531.0 W/m2 CLR
13:05 -5.4 °C -11.7 °C 34476.3 hPa WSW 6 km/h 6 km/h 49 % 0 mm 654.0 W/m2 CLR
13:10 -5.4 °C -11.7 °C 34476.3 hPa WNW 3.1 km/h 3.1 km/h 49 % 0 mm 489.0 W/m2 CLR
13:15 -5.4 °C -11.8 °C 34462.7 hPa Calm     48 % 0 mm 541.0 W/m2 CLR
13:20 -5.4 °C -12 °C 34462.7 hPa Calm     47 % 0 mm 431.0 W/m2 CLR
13:25 -5.4 °C -12.2 °C 34452.6 hPa Calm     46 % 0 mm 722.0 W/m2 CLR
13:30 -5.1 °C -11.6 °C 34452.6 hPa Calm     48 % 0 mm 652.0 W/m2 CLR
13:35 -4.8 °C -11.4 °C 34452.6 hPa Calm     47 % 0 mm 824.0 W/m2 CLR
13:40 -4.8 °C -11.6 °C 34452.6 hPa Calm     46 % 0 mm 828.0 W/m2 CLR
13:45 -4.8 °C -11.8 °C 34452.6 hPa NE 9 km/h 9 km/h 45 % 0 mm 858.0 W/m2 CLR
13:50 -4.5 °C -11.3 °C 34442.4 hPa Calm     46 % 0 mm 874.0 W/m2 CLR
13:55 -4.5 °C -11.3 °C 34442.4 hPa ENE 3.1 km/h   46 % 0 mm 765.0 W/m2 CLR
14:00 -4.2 °C -11.4 °C 34442.4 hPa NNE 15 km/h 15 km/h 44 % 0 mm 933.0 W/m2 CLR
14:05 -3.9 °C -11.2 °C 34442.4 hPa North 12.9 km/h 12.9 km/h 44 % 0 mm 1034.0 W/m2 CLR
14:10 -3.9 °C -11.6 °C 34442.4 hPa Calm     42 % 0 mm 798.0 W/m2 CLR
14:15 -3.6 °C -11.5 °C 34442.4 hPa Calm     41 % 0 mm 865.0 W/m2 CLR
14:20 -3.6 °C -11.9 °C 34428.8 hPa Calm     39 % 0 mm 870.0 W/m2 CLR
14:25 -3.6 °C -12.3 °C 34428.8 hPa Calm     37 % 0 mm 870.0 W/m2 CLR
14:30 -3.6 °C -12.1 °C 34428.8 hPa Calm     38 % 0 mm 904.0 W/m2 CLR
14:32 -3.6 °C -12.1 °C 34428.8 hPa Calm     38 % 0 mm 865.0 W/m2 CLR
14:37 -3.6 °C -11.9 °C 34428.8 hPa NE 3.1 km/h   39 % 0 mm 965.0 W/m2 CLR
14:42 -3.3 °C -11.8 °C 34428.8 hPa Calm     38 % 0 mm 496.0 W/m2 CLR
14:47 -3.6 °C -12.6 °C 34428.8 hPa Calm     36 % 0 mm 503.0 W/m2 CLR
14:52 -2.9 °C -11.8 °C 34428.8 hPa Calm     37 % 0 mm 1005.0 W/m2 CLR
14:57 -2.9 °C -12.3 °C 34428.8 hPa NW 11.9 km/h 11.9 km/h 35 % 0 mm 566.0 W/m2 CLR
15:02 -2.9 °C -12.1 °C 34418.7 hPa West 26.9 km/h 26.9 km/h 36 % 0 mm 786.0 W/m2 CLR
15:07 -2.7 °C -12.2 °C 34418.7 hPa West 20.9 km/h 20.9 km/h 34 % 0 mm 779.0 W/m2 CLR
15:12 -2.9 °C -12.5 °C 34418.7 hPa West 23.8 km/h 23.8 km/h 34 % 0 mm 536.0 W/m2 CLR
15:17 -2.9 °C -12.7 °C 34418.7 hPa WNW 23.8 km/h 23.8 km/h 33 % 0 mm 515.0 W/m2 CLR
15:22 -2.9 °C -12.7 °C 34418.7 hPa North 3.1 km/h 3.1 km/h 33 % 0 mm 476.0 W/m2 CLR
15:27 -3.3 °C -13 °C 34405.1 hPa NW 9 km/h 9 km/h 33 % 0 mm 452.0 W/m2 CLR
15:32 -3.3 °C -13 °C 34405.1 hPa WNW 9 km/h 9 km/h 33 % 0 mm 355.0 W/m2 CLR
15:37 -3.3 °C -13.5 °C 34405.1 hPa West 20.9 km/h 20.9 km/h 31 % 0 mm 418.0 W/m2 CLR
15:42 -3.3 °C -13.3 °C 34405.1 hPa West 20.9 km/h 20.9 km/h 32 % 0 mm 473.0 W/m2 CLR
15:47 -3.3 °C -13.5 °C 34405.1 hPa Calm     31 % 0 mm 587.0 W/m2 CLR
15:52 -2.9 °C -13.5 °C 34395 hPa West 20.9 km/h 20.9 km/h 30 % 0 mm 594.0 W/m2 CLR
15:57 -2.9 °C -13.5 °C 34395 hPa SW 15.6 km/h 15.6 km/h 30 % 0 mm 647.0 W/m2 CLR
16:02 -2.9 °C -13 °C 34395 hPa WNW 15.6 km/h 15.6 km/h 32 % 0 mm 643.0 W/m2 CLR
16:07 -2.7 °C -13.3 °C 34395 hPa WNW 25.9 km/h 25.9 km/h 30 % 0 mm 610.0 W/m2 CLR
16:12 -2.9 °C -14.1 °C 34395 hPa NW 23.3 km/h 23.3 km/h 28 % 0 mm 726.0 W/m2 CLR
16:17 -2.7 °C -14.1 °C 34384.8 hPa West 29.8 km/h 29.8 km/h 27 % 0 mm 612.0 W/m2 CLR
16:22 -2.7 °C -13.6 °C 34384.8 hPa West 20.8 km/h 20.8 km/h 29 % 0 mm 554.0 W/m2 CLR
16:27 -2.9 °C -13.8 °C 34384.8 hPa WNW 20.9 km/h 20.9 km/h 29 % 0 mm 520.0 W/m2 CLR
16:32 -2.9 °C -13.8 °C 34384.8 hPa West 20.8 km/h 20.8 km/h 29 % 0 mm 554.0 W/m2 CLR
16:37 -2.7 °C -13.6 °C 34384.8 hPa WNW 18.2 km/h 18.2 km/h 29 % 0 mm 575.0 W/m2 CLR
16:42 -2.7 °C -13.6 °C 34384.8 hPa WSW 12.9 km/h 12.9 km/h 29 % 0 mm 578.0 W/m2 CLR
16:47 -2.7 °C -13.8 °C 34384.8 hPa WNW 26.9 km/h 26.9 km/h 28 % 0 mm 499.0 W/m2 CLR
16:52 -2.7 °C -13.8 °C 34384.8 hPa West 32.8 km/h 32.8 km/h 28 % 0 mm 471.0 W/m2 CLR
16:57 -2.9 °C -14.1 °C 34384.8 hPa WNW 23.8 km/h 23.8 km/h 28 % 0 mm 504.0 W/m2 CLR
17:02 -2.7 °C -14.1 °C 34384.8 hPa WNW 29.8 km/h 29.8 km/h 27 % 0 mm 468.0 W/m2 CLR
17:07 -2.9 °C -14.1 °C 34384.8 hPa WSW 18.2 km/h 18.2 km/h 28 % 0 mm 236.0 W/m2 CLR
17:12 -2.9 °C -14.1 °C 34371.3 hPa West 23.3 km/h 23.3 km/h 28 % 0 mm 329.0 W/m2 CLR
17:17 -2.9 °C -14.4 °C 34371.3 hPa West 25.9 km/h 25.9 km/h 27 % 0 mm 427.0 W/m2 CLR
17:22 -2.9 °C -14.1 °C 34371.3 hPa West 29.8 km/h 29.8 km/h 28 % 0 mm 396.0 W/m2 CLR
17:27 -2.9 °C -14.1 °C 34371.3 hPa West 23.8 km/h 23.8 km/h 28 % 0 mm 399.0 W/m2 CLR
17:32 -2.9 °C -14.1 °C 34371.3 hPa West 17.9 km/h 17.9 km/h 28 % 0 mm 283.0 W/m2 CLR
17:37 -2.9 °C -14.1 °C 34371.3 hPa West 20.9 km/h 20.9 km/h 28 % 0 mm 318.0 W/m2 CLR
17:42 -2.9 °C -13.8 °C 34371.3 hPa West 20.9 km/h 20.9 km/h 29 % 0 mm 343.0 W/m2 CLR
17:47 -2.9 °C -14.1 °C 34371.3 hPa West 15.6 km/h 15.6 km/h 28 % 0 mm 454.0 W/m2 CLR
17:52 -2.7 °C -13.8 °C 34371.3 hPa WSW 5.1 km/h 8.5 km/h 28 % 0 mm 394.0 W/m2 CLR
17:57 -2.7 °C -14.1 °C 34371.3 hPa Calm     27 % 0 mm 313.0 W/m2 CLR
18:02 -2.7 °C -13.8 °C 34361.1 hPa Calm     28 % 0 mm 320.0 W/m2 CLR
18:07 -2.9 °C -14.4 °C 34361.1 hPa WNW 9 km/h 9 km/h 27 % 0 mm 285.0 W/m2 CLR
18:12 -2.9 °C -14.1 °C 34361.1 hPa Calm     28 % 0 mm 246.0 W/m2 CLR
18:17 -2.9 °C -14.1 °C 34361.1 hPa WNW 15.6 km/h 15.6 km/h 28 % 0 mm 373.0 W/m2 CLR
18:22 -2.7 °C -14.1 °C 34361.1 hPa Calm     27 % 0 mm 378.0 W/m2 CLR
18:27 -2.7 °C -14.1 °C 34361.1 hPa WSW 17.9 km/h 17.9 km/h 27 % 0 mm 343.0 W/m2 CLR
18:32 -2.7 °C -13.8 °C 34361.1 hPa WNW 9 km/h   28 % 0 mm 332.0 W/m2 CLR
18:37 -2.7 °C -14.1 °C 34361.1 hPa Calm   1.8 km/h 27 % 0 mm 308.0 W/m2 CLR
18:42 -2.9 °C -14.4 °C 34347.6 hPa Calm     27 % 0 mm 218.0 W/m2 CLR
18:47 -2.9 °C -14.1 °C 34361.1 hPa Calm     28 % 0 mm 149.0 W/m2 CLR
18:49 -2.9 °C -14.1 °C 34361.1 hPa Calm     28 % 0 mm 190.0 W/m2 CLR
18:54 -3.3 °C -14.3 °C 34347.6 hPa WSW 6 km/h   28 % 0 mm 274.0 W/m2 CLR
18:59 -3.3 °C -14.3 °C 34347.6 hPa Calm     28 % 0 mm 179.0 W/m2 CLR
19:04 -3.3 °C -14.6 °C 34347.6 hPa Calm     27 % 0 mm 234.0 W/m2 CLR
19:09 -3.3 °C -14.6 °C 34347.6 hPa WNW 15 km/h 15 km/h 27 % 0 mm 216.0 W/m2 CLR
19:14 -3.3 °C -14.6 °C 34347.6 hPa Calm     27 % 0 mm 209.0 W/m2 CLR
19:19 -3.3 °C -14.6 °C 34347.6 hPa Calm     27 % 0 mm 88.0 W/m2 CLR
19:24 -3.6 °C -14.9 °C 34347.6 hPa Calm     27 % 0 mm 120.0 W/m2 CLR
19:29 -3.6 °C -14.9 °C 34347.6 hPa Calm     27 % 0 mm 148.0 W/m2 CLR
19:34 -3.9 °C -14.9 °C 34347.6 hPa SW 9 km/h 9 km/h 28 % 0 mm 86.0 W/m2 CLR
19:39 -3.6 °C -14.6 °C 34347.6 hPa WSW 11.9 km/h 11.9 km/h 28 % 0 mm 84.0 W/m2 FEW
19:44 -3.9 °C -14.9 °C 34347.6 hPa West 9 km/h 9 km/h 28 % 0 mm 53.0 W/m2 SCT
19:50 -4.2 °C -14.9 °C 34347.6 hPa Calm     29 % 0 mm 33.0 W/m2 BKN
19:55 -4.8 °C -15.4 °C 34347.6 hPa Calm     29 % 0 mm 21.0 W/m2 BKN
20:00 -5.4 °C -15.7 °C 34347.6 hPa Calm     30 % 0 mm 19.0 W/m2 BKN
20:06 -5.7 °C -15.9 °C 34347.6 hPa Calm     30 % 0 mm 19.0 W/m2 BKN
20:11 -6.1 °C -15.9 °C 34347.6 hPa Calm     31 % 0 mm 16.0 W/m2 BKN
20:16 -6.1 °C -15.4 °C 34347.6 hPa Calm     33 % 0 mm 12.0 W/m2 BKN
20:21 -6.3 °C -15.9 °C 34347.6 hPa Calm     32 % 0 mm 9.0 W/m2 BKN
20:25 -6.3 °C -15.7 °C 34347.6 hPa Calm     33 % 0 mm 0.0 W/m2 OVC
20:31 -6.3 °C -15.2 °C 34347.6 hPa Calm     35 % 0 mm 0.0 W/m2 OVC
20:36 -6.7 °C -15.5 °C 34347.6 hPa Calm     35 % 0 mm 0.0 W/m2 OVC
20:41 -6.7 °C -15.3 °C 34347.6 hPa Calm     36 % 0 mm 0.0 W/m2 CLR
20:46 -7 °C -15.6 °C 34347.6 hPa Calm     36 % 0 mm 0.0 W/m2 CLR
20:51 -7.3 °C -15.4 °C 34347.6 hPa Calm     38 % 0 mm 0.0 W/m2 CLR
20:56 -7.3 °C -15 °C 34347.6 hPa Calm     40 % 0 mm 0.0 W/m2 CLR
21:01 -7.3 °C -14.4 °C 34347.6 hPa Calm     43 % 0 mm 0.0 W/m2 CLR
21:06 -7.6 °C -14.7 °C 34347.6 hPa Calm     43 % 0 mm 0.0 W/m2 CLR
21:11 -7.6 °C -14 °C 34347.6 hPa Calm     47 % 0 mm 0.0 W/m2 CLR
21:16 -7.6 °C -14.6 °C 34347.6 hPa Calm     44 % 0 mm 0.0 W/m2 CLR
21:21 -7.3 °C -13.4 °C 34361.1 hPa Calm     49 % 0 mm 0.0 W/m2 CLR
21:26 -7.3 °C -13.2 °C 34361.1 hPa Calm     50 % 0 mm 0.0 W/m2 CLR
21:31 -7.6 °C -13.8 °C 34361.1 hPa Calm     48 % 0 mm 0.0 W/m2 CLR
21:36 -7.6 °C -13.8 °C 34361.1 hPa Calm     48 % 0 mm 0.0 W/m2 CLR
21:41 -7.6 °C -13.8 °C 34361.1 hPa Calm     48 % 0 mm 0.0 W/m2 CLR
21:46 -7.6 °C -13.8 °C 34361.1 hPa Calm     48 % 0 mm 0.0 W/m2 CLR
21:51 -7.6 °C -13.5 °C 34371.3 hPa Calm     50 % 0 mm 0.0 W/m2 CLR
21:56 -7.6 °C -13.5 °C 34371.3 hPa Calm     50 % 0 mm 0.0 W/m2 CLR
22:01 -7.6 °C -13.2 °C 34371.3 hPa Calm     52 % 0 mm 0.0 W/m2 CLR
22:06 -7.3 °C -12.9 °C 34371.3 hPa Calm     52 % 0 mm 0.0 W/m2 CLR
22:11 -7.3 °C -12.7 °C 34384.8 hPa Calm     53 % 0 mm 0.0 W/m2 CLR
22:16 -7.6 °C -12.9 °C 34384.8 hPa Calm     54 % 0 mm 0.0 W/m2 CLR
22:21 -7.6 °C -13 °C 34384.8 hPa Calm     53 % 0 mm 0.0 W/m2 CLR
22:26 -7.6 °C -13 °C 34384.8 hPa Calm     53 % 0 mm 0.0 W/m2 CLR
22:31 -7.9 °C -13.2 °C 34395 hPa Calm     54 % 0 mm 0.0 W/m2 CLR
22:36 -7.9 °C -13.2 °C 34395 hPa Calm     54 % 0 mm 0.0 W/m2 CLR
22:41 -7.9 °C -13.3 °C 34395 hPa Calm     53 % 0 mm 0.0 W/m2 CLR
22:46 -7.6 °C -12.9 °C 34395 hPa Calm     54 % 0 mm 0.0 W/m2 CLR
22:51 -7.6 °C -12.9 °C 34395 hPa Calm     54 % 0 mm 0.0 W/m2 CLR
22:56 -7.6 °C -12.9 °C 34405.1 hPa Calm     54 % 0 mm 0.0 W/m2 CLR
23:01 -7.6 °C -12.9 °C 34405.1 hPa Calm     54 % 0 mm 0.0 W/m2 CLR
23:06 -7.6 °C -12.3 °C 34405.1 hPa Calm     58 % 0 mm 0.0 W/m2 CLR
23:11 -7.9 °C -12.3 °C 34418.7 hPa Calm     60 % 0 mm 0.0 W/m2 CLR
23:16 -7.9 °C -12.4 °C 34418.7 hPa Calm     59 % 0 mm 0.0 W/m2 CLR
23:21 -7.9 °C -12.4 °C 34418.7 hPa Calm     59 % 0 mm 0.0 W/m2 CLR
23:26 -8.2 °C -12.4 °C 34418.7 hPa Calm     61 % 0 mm 0.0 W/m2 CLR
23:31 -8.2 °C -12.8 °C 34418.7 hPa SW 11.9 km/h 11.9 km/h 58 % 7.62 mm 0.0 W/m2 RA
23:36 -8.2 °C -13 °C 34418.7 hPa Calm     57 % 12.7 mm 0.0 W/m2 RA
23:41 -8.2 °C -11.8 °C 34418.7 hPa SW 6 km/h   66 % 12.7 mm 0.0 W/m2 RA
23:46 -8.5 °C -11.4 °C 34405.1 hPa Calm     71 % 12.7 mm 0.0 W/m2 CLR
23:51 -8.5 °C -11.9 °C 34395 hPa Calm     67 % 12.7 mm 0.0 W/m2 CLR
23:56 -8.5 °C -12.2 °C 34395 hPa Calm     65 % 12.7 mm 0.0 W/m2 CLR
Lo Temps de Massalio
Compliments of Weather Underground - 1.25 mb